sensor_id;sensor_type;location;lat;lon;timestamp;P1;durP1;ratioP1;P2;durP2;ratioP2
49296;SDS011;35163;48.878;18.040;2023-02-21T00:02:15;4.60;;;1.80;;
49296;SDS011;35163;48.878;18.040;2023-02-21T00:07:45;7.70;;;1.97;;
49296;SDS011;35163;48.878;18.040;2023-02-21T00:10:31;4.75;;;2.05;;
49296;SDS011;35163;48.878;18.040;2023-02-21T00:13:16;4.22;;;1.85;;
49296;SDS011;35163;48.878;18.040;2023-02-21T00:16:01;6.93;;;1.92;;
49296;SDS011;35163;48.878;18.040;2023-02-21T00:18:47;7.75;;;1.77;;
49296;SDS011;35163;48.878;18.040;2023-02-21T00:21:32;5.13;;;1.80;;
49296;SDS011;35163;48.878;18.040;2023-02-21T00:24:17;8.23;;;2.85;;
49296;SDS011;35163;48.878;18.040;2023-02-21T00:27:03;5.25;;;2.03;;
49296;SDS011;35163;48.878;18.040;2023-02-21T00:32:35;7.90;;;2.40;;
49296;SDS011;35163;48.878;18.040;2023-02-21T00:35:21;5.15;;;2.13;;
49296;SDS011;35163;48.878;18.040;2023-02-21T00:38:06;4.82;;;2.28;;
49296;SDS011;35163;48.878;18.040;2023-02-21T00:40:51;5.05;;;2.20;;
49296;SDS011;35163;48.878;18.040;2023-02-21T00:43:37;4.93;;;2.28;;
49296;SDS011;35163;48.878;18.040;2023-02-21T00:46:23;3.92;;;2.08;;
49296;SDS011;35163;48.878;18.040;2023-02-21T00:49:08;7.18;;;2.80;;
49296;SDS011;35163;48.878;18.040;2023-02-21T00:51:53;5.40;;;2.20;;
49296;SDS011;35163;48.878;18.040;2023-02-21T00:54:39;4.78;;;2.10;;
49296;SDS011;35163;48.878;18.040;2023-02-21T01:00:15;6.93;;;2.13;;
49296;SDS011;35163;48.878;18.040;2023-02-21T01:03:02;8.25;;;2.25;;
49296;SDS011;35163;48.878;18.040;2023-02-21T01:05:48;6.00;;;1.90;;
49296;SDS011;35163;48.878;18.040;2023-02-21T01:08:39;12.18;;;2.38;;
49296;SDS011;35163;48.878;18.040;2023-02-21T01:11:25;6.10;;;2.10;;
49296;SDS011;35163;48.878;18.040;2023-02-21T01:14:10;4.40;;;1.95;;
49296;SDS011;35163;48.878;18.040;2023-02-21T01:16:56;6.40;;;1.90;;
49296;SDS011;35163;48.878;18.040;2023-02-21T01:19:41;5.78;;;2.60;;
49296;SDS011;35163;48.878;18.040;2023-02-21T01:22:27;4.75;;;1.98;;
49296;SDS011;35163;48.878;18.040;2023-02-21T01:25:13;7.60;;;2.65;;
49296;SDS011;35163;48.878;18.040;2023-02-21T01:27:59;11.10;;;2.00;;
49296;SDS011;35163;48.878;18.040;2023-02-21T01:30:45;10.82;;;2.90;;
49296;SDS011;35163;48.878;18.040;2023-02-21T01:36:19;4.75;;;2.00;;
49296;SDS011;35163;48.878;18.040;2023-02-21T01:39:04;5.97;;;2.38;;
49296;SDS011;35163;48.878;18.040;2023-02-21T01:41:49;5.85;;;2.55;;
49296;SDS011;35163;48.878;18.040;2023-02-21T01:44:35;5.40;;;2.25;;
49296;SDS011;35163;48.878;18.040;2023-02-21T01:47:21;4.57;;;2.13;;
49296;SDS011;35163;48.878;18.040;2023-02-21T01:50:20;5.00;;;2.35;;
49296;SDS011;35163;48.878;18.040;2023-02-21T01:53:13;4.60;;;2.20;;
49296;SDS011;35163;48.878;18.040;2023-02-21T01:56:01;8.65;;;2.30;;
49296;SDS011;35163;48.878;18.040;2023-02-21T01:58:47;4.90;;;1.90;;
49296;SDS011;35163;48.878;18.040;2023-02-21T02:01:38;5.45;;;1.92;;
49296;SDS011;35163;48.878;18.040;2023-02-21T02:04:30;6.90;;;2.03;;
49296;SDS011;35163;48.878;18.040;2023-02-21T02:07:17;4.90;;;2.25;;
49296;SDS011;35163;48.878;18.040;2023-02-21T02:10:04;7.82;;;2.17;;
49296;SDS011;35163;48.878;18.040;2023-02-21T02:15:51;6.55;;;2.42;;
49296;SDS011;35163;48.878;18.040;2023-02-21T02:23:59;5.28;;;1.80;;
49296;SDS011;35163;48.878;18.040;2023-02-21T02:26:58;5.95;;;1.95;;
49296;SDS011;35163;48.878;18.040;2023-02-21T02:48:15;8.48;;;2.50;;
49296;SDS011;35163;48.878;18.040;2023-02-21T02:50:48;5.95;;;2.75;;
49296;SDS011;35163;48.878;18.040;2023-02-21T02:53:19;5.45;;;2.30;;
49296;SDS011;35163;48.878;18.040;2023-02-21T02:55:58;9.07;;;2.95;;
49296;SDS011;35163;48.878;18.040;2023-02-21T02:58:33;6.78;;;2.67;;
49296;SDS011;35163;48.878;18.040;2023-02-21T03:01:37;4.03;;;1.95;;
49296;SDS011;35163;48.878;18.040;2023-02-21T03:06:41;5.47;;;2.30;;
49296;SDS011;35163;48.878;18.040;2023-02-21T03:09:26;7.40;;;2.38;;
49296;SDS011;35163;48.878;18.040;2023-02-21T03:12:04;6.43;;;2.38;;
49296;SDS011;35163;48.878;18.040;2023-02-21T03:14:45;7.15;;;2.45;;
49296;SDS011;35163;48.878;18.040;2023-02-21T03:17:16;9.35;;;2.17;;
49296;SDS011;35163;48.878;18.040;2023-02-21T03:19:49;5.53;;;2.35;;
49296;SDS011;35163;48.878;18.040;2023-02-21T03:22:20;6.00;;;2.25;;
49296;SDS011;35163;48.878;18.040;2023-02-21T03:24:49;5.60;;;2.00;;
49296;SDS011;35163;48.878;18.040;2023-02-21T03:27:18;5.18;;;2.08;;
49296;SDS011;35163;48.878;18.040;2023-02-21T03:29:46;6.38;;;2.65;;
49296;SDS011;35163;48.878;18.040;2023-02-21T03:32:17;6.00;;;2.53;;
49296;SDS011;35163;48.878;18.040;2023-02-21T03:34:50;7.55;;;2.28;;
49296;SDS011;35163;48.878;18.040;2023-02-21T03:40:08;7.70;;;2.47;;
49296;SDS011;35163;48.878;18.040;2023-02-21T03:43:02;6.00;;;2.65;;
49296;SDS011;35163;48.878;18.040;2023-02-21T03:45:32;5.18;;;2.42;;
49296;SDS011;35163;48.878;18.040;2023-02-21T03:48:00;8.23;;;2.67;;
49296;SDS011;35163;48.878;18.040;2023-02-21T03:50:27;7.68;;;2.83;;
49296;SDS011;35163;48.878;18.040;2023-02-21T03:52:53;6.35;;;2.45;;
49296;SDS011;35163;48.878;18.040;2023-02-21T03:55:20;9.50;;;3.10;;
49296;SDS011;35163;48.878;18.040;2023-02-21T03:57:46;4.60;;;2.22;;
49296;SDS011;35163;48.878;18.040;2023-02-21T04:00:13;9.27;;;2.88;;
49296;SDS011;35163;48.878;18.040;2023-02-21T04:02:43;6.75;;;3.08;;
49296;SDS011;35163;48.878;18.040;2023-02-21T04:05:10;7.18;;;3.00;;
49296;SDS011;35163;48.878;18.040;2023-02-21T04:07:36;8.80;;;2.50;;
49296;SDS011;35163;48.878;18.040;2023-02-21T04:10:03;7.07;;;2.80;;
49296;SDS011;35163;48.878;18.040;2023-02-21T04:12:30;5.57;;;2.58;;
49296;SDS011;35163;48.878;18.040;2023-02-21T04:14:56;6.30;;;2.53;;
49296;SDS011;35163;48.878;18.040;2023-02-21T04:17:24;10.57;;;2.70;;
49296;SDS011;35163;48.878;18.040;2023-02-21T04:19:50;5.53;;;2.33;;
49296;SDS011;35163;48.878;18.040;2023-02-21T04:22:17;4.82;;;1.92;;
49296;SDS011;35163;48.878;18.040;2023-02-21T04:24:44;6.32;;;2.45;;
49296;SDS011;35163;48.878;18.040;2023-02-21T04:27:10;6.07;;;2.33;;
49296;SDS011;35163;48.878;18.040;2023-02-21T04:29:37;4.40;;;2.28;;
49296;SDS011;35163;48.878;18.040;2023-02-21T04:32:03;6.50;;;2.80;;
49296;SDS011;35163;48.878;18.040;2023-02-21T04:34:30;5.78;;;2.63;;
49296;SDS011;35163;48.878;18.040;2023-02-21T04:36:57;8.07;;;2.45;;
49296;SDS011;35163;48.878;18.040;2023-02-21T04:39:23;7.85;;;2.60;;
49296;SDS011;35163;48.878;18.040;2023-02-21T04:41:50;7.80;;;2.72;;
49296;SDS011;35163;48.878;18.040;2023-02-21T04:44:17;7.63;;;2.67;;
49296;SDS011;35163;48.878;18.040;2023-02-21T04:46:44;5.65;;;2.40;;
49296;SDS011;35163;48.878;18.040;2023-02-21T04:49:13;7.65;;;2.90;;
49296;SDS011;35163;48.878;18.040;2023-02-21T04:51:40;7.10;;;3.13;;
49296;SDS011;35163;48.878;18.040;2023-02-21T04:54:07;7.03;;;2.63;;
49296;SDS011;35163;48.878;18.040;2023-02-21T04:56:41;11.68;;;3.33;;
49296;SDS011;35163;48.878;18.040;2023-02-21T05:01:35;7.32;;;2.83;;
49296;SDS011;35163;48.878;18.040;2023-02-21T05:04:02;11.55;;;3.78;;
49296;SDS011;35163;48.878;18.040;2023-02-21T05:06:30;11.35;;;3.53;;
49296;SDS011;35163;48.878;18.040;2023-02-21T05:08:57;8.85;;;3.45;;
49296;SDS011;35163;48.878;18.040;2023-02-21T05:11:25;7.35;;;3.10;;
49296;SDS011;35163;48.878;18.040;2023-02-21T05:13:54;8.38;;;2.88;;
49296;SDS011;35163;48.878;18.040;2023-02-21T05:16:21;8.30;;;2.80;;
49296;SDS011;35163;48.878;18.040;2023-02-21T05:18:49;9.23;;;2.85;;
49296;SDS011;35163;48.878;18.040;2023-02-21T05:21:16;8.23;;;3.08;;
49296;SDS011;35163;48.878;18.040;2023-02-21T05:23:47;8.50;;;2.83;;
49296;SDS011;35163;48.878;18.040;2023-02-21T05:26:32;9.15;;;3.45;;
49296;SDS011;35163;48.878;18.040;2023-02-21T05:29:02;9.48;;;3.00;;
49296;SDS011;35163;48.878;18.040;2023-02-21T05:31:30;12.48;;;3.50;;
49296;SDS011;35163;48.878;18.040;2023-02-21T05:33:56;10.15;;;3.20;;
49296;SDS011;35163;48.878;18.040;2023-02-21T05:36:23;7.50;;;3.05;;
49296;SDS011;35163;48.878;18.040;2023-02-21T05:38:51;9.13;;;3.25;;
49296;SDS011;35163;48.878;18.040;2023-02-21T05:41:20;8.75;;;3.22;;
49296;SDS011;35163;48.878;18.040;2023-02-21T05:43:47;14.75;;;6.55;;
49296;SDS011;35163;48.878;18.040;2023-02-21T05:48:52;25.08;;;11.38;;
49296;SDS011;35163;48.878;18.040;2023-02-21T05:51:19;12.43;;;4.70;;
49296;SDS011;35163;48.878;18.040;2023-02-21T05:53:45;8.88;;;3.35;;
49296;SDS011;35163;48.878;18.040;2023-02-21T05:56:13;9.60;;;3.22;;
49296;SDS011;35163;48.878;18.040;2023-02-21T05:58:40;6.68;;;3.17;;
49296;SDS011;35163;48.878;18.040;2023-02-21T06:01:10;12.07;;;3.78;;
49296;SDS011;35163;48.878;18.040;2023-02-21T06:03:37;8.82;;;3.35;;
49296;SDS011;35163;48.878;18.040;2023-02-21T06:06:04;12.07;;;2.92;;
49296;SDS011;35163;48.878;18.040;2023-02-21T06:08:31;9.02;;;2.88;;
49296;SDS011;35163;48.878;18.040;2023-02-21T06:10:58;7.30;;;2.88;;
49296;SDS011;35163;48.878;18.040;2023-02-21T06:13:24;7.32;;;3.15;;
49296;SDS011;35163;48.878;18.040;2023-02-21T06:15:51;7.40;;;2.72;;
49296;SDS011;35163;48.878;18.040;2023-02-21T06:18:18;9.10;;;3.60;;
49296;SDS011;35163;48.878;18.040;2023-02-21T06:20:44;7.22;;;2.90;;
49296;SDS011;35163;48.878;18.040;2023-02-21T06:23:11;8.93;;;3.35;;
49296;SDS011;35163;48.878;18.040;2023-02-21T06:25:37;6.78;;;3.40;;
49296;SDS011;35163;48.878;18.040;2023-02-21T06:28:04;12.63;;;2.63;;
49296;SDS011;35163;48.878;18.040;2023-02-21T06:30:31;8.65;;;3.50;;
49296;SDS011;35163;48.878;18.040;2023-02-21T06:32:57;9.10;;;3.55;;
49296;SDS011;35163;48.878;18.040;2023-02-21T06:35:24;7.55;;;3.08;;
49296;SDS011;35163;48.878;18.040;2023-02-21T06:37:51;10.23;;;3.88;;
49296;SDS011;35163;48.878;18.040;2023-02-21T06:40:17;10.13;;;3.45;;
49296;SDS011;35163;48.878;18.040;2023-02-21T06:42:45;14.52;;;3.83;;
49296;SDS011;35163;48.878;18.040;2023-02-21T06:45:12;11.20;;;3.40;;
49296;SDS011;35163;48.878;18.040;2023-02-21T06:47:38;16.63;;;7.22;;
49296;SDS011;35163;48.878;18.040;2023-02-21T06:50:05;15.18;;;6.45;;
49296;SDS011;35163;48.878;18.040;2023-02-21T06:52:35;23.52;;;4.88;;
49296;SDS011;35163;48.878;18.040;2023-02-21T06:55:02;7.72;;;3.20;;
49296;SDS011;35163;48.878;18.040;2023-02-21T06:57:28;14.13;;;3.58;;
49296;SDS011;35163;48.878;18.040;2023-02-21T06:59:55;9.48;;;3.47;;
49296;SDS011;35163;48.878;18.040;2023-02-21T07:02:21;9.00;;;3.50;;
49296;SDS011;35163;48.878;18.040;2023-02-21T07:04:48;12.25;;;6.00;;
49296;SDS011;35163;48.878;18.040;2023-02-21T07:07:15;15.43;;;4.50;;
49296;SDS011;35163;48.878;18.040;2023-02-21T07:09:41;10.98;;;3.50;;
49296;SDS011;35163;48.878;18.040;2023-02-21T07:12:08;9.52;;;3.40;;
49296;SDS011;35163;48.878;18.040;2023-02-21T07:14:35;10.60;;;3.67;;
49296;SDS011;35163;48.878;18.040;2023-02-21T07:17:01;10.57;;;3.55;;
49296;SDS011;35163;48.878;18.040;2023-02-21T07:19:28;8.20;;;3.50;;
49296;SDS011;35163;48.878;18.040;2023-02-21T07:21:55;8.00;;;3.40;;
49296;SDS011;35163;48.878;18.040;2023-02-21T07:24:22;9.23;;;3.42;;
49296;SDS011;35163;48.878;18.040;2023-02-21T07:26:48;6.43;;;2.92;;
49296;SDS011;35163;48.878;18.040;2023-02-21T07:29:15;9.10;;;3.40;;
49296;SDS011;35163;48.878;18.040;2023-02-21T07:31:42;9.88;;;3.42;;
49296;SDS011;35163;48.878;18.040;2023-02-21T07:34:09;15.18;;;7.00;;
49296;SDS011;35163;48.878;18.040;2023-02-21T07:36:37;10.07;;;4.13;;
49296;SDS011;35163;48.878;18.040;2023-02-21T07:39:05;13.07;;;3.60;;
49296;SDS011;35163;48.878;18.040;2023-02-21T07:41:32;10.02;;;3.33;;
49296;SDS011;35163;48.878;18.040;2023-02-21T07:43:58;8.48;;;2.88;;
49296;SDS011;35163;48.878;18.040;2023-02-21T07:46:27;11.75;;;3.55;;
49296;SDS011;35163;48.878;18.040;2023-02-21T07:48:55;26.65;;;11.43;;
49296;SDS011;35163;48.878;18.040;2023-02-21T07:51:21;14.63;;;5.13;;
49296;SDS011;35163;48.878;18.040;2023-02-21T07:53:48;8.18;;;3.60;;
49296;SDS011;35163;48.878;18.040;2023-02-21T07:56:15;16.48;;;8.77;;
49296;SDS011;35163;48.878;18.040;2023-02-21T07:58:42;12.32;;;5.20;;
49296;SDS011;35163;48.878;18.040;2023-02-21T08:01:08;8.88;;;3.53;;
49296;SDS011;35163;48.878;18.040;2023-02-21T08:03:45;9.23;;;4.72;;
49296;SDS011;35163;48.878;18.040;2023-02-21T08:06:12;14.10;;;6.53;;
49296;SDS011;35163;48.878;18.040;2023-02-21T08:08:38;11.50;;;4.15;;
49296;SDS011;35163;48.878;18.040;2023-02-21T08:11:05;7.45;;;3.33;;
49296;SDS011;35163;48.878;18.040;2023-02-21T08:13:32;7.97;;;3.33;;
49296;SDS011;35163;48.878;18.040;2023-02-21T08:15:58;6.10;;;2.70;;
49296;SDS011;35163;48.878;18.040;2023-02-21T08:18:25;10.50;;;3.15;;
49296;SDS011;35163;48.878;18.040;2023-02-21T08:20:53;9.23;;;3.13;;
49296;SDS011;35163;48.878;18.040;2023-02-21T08:23:20;10.55;;;3.60;;
49296;SDS011;35163;48.878;18.040;2023-02-21T08:25:47;11.18;;;3.95;;
49296;SDS011;35163;48.878;18.040;2023-02-21T08:28:15;6.63;;;3.08;;
49296;SDS011;35163;48.878;18.040;2023-02-21T08:30:42;8.65;;;3.13;;
49296;SDS011;35163;48.878;18.040;2023-02-21T08:33:08;6.50;;;3.10;;
49296;SDS011;35163;48.878;18.040;2023-02-21T08:35:35;8.82;;;3.63;;
49296;SDS011;35163;48.878;18.040;2023-02-21T08:38:02;9.63;;;3.13;;
49296;SDS011;35163;48.878;18.040;2023-02-21T08:40:29;10.65;;;3.47;;
49296;SDS011;35163;48.878;18.040;2023-02-21T08:42:57;11.52;;;3.90;;
49296;SDS011;35163;48.878;18.040;2023-02-21T08:45:25;5.82;;;3.03;;
49296;SDS011;35163;48.878;18.040;2023-02-21T08:47:53;9.88;;;3.58;;
49296;SDS011;35163;48.878;18.040;2023-02-21T08:50:22;8.40;;;3.22;;
49296;SDS011;35163;48.878;18.040;2023-02-21T08:52:50;9.55;;;3.15;;
49296;SDS011;35163;48.878;18.040;2023-02-21T08:55:17;12.90;;;4.13;;
49296;SDS011;35163;48.878;18.040;2023-02-21T08:57:49;8.32;;;3.10;;
49296;SDS011;35163;48.878;18.040;2023-02-21T09:00:17;9.55;;;3.58;;
49296;SDS011;35163;48.878;18.040;2023-02-21T09:02:51;7.13;;;3.42;;
49296;SDS011;35163;48.878;18.040;2023-02-21T09:05:20;19.02;;;8.55;;
49296;SDS011;35163;48.878;18.040;2023-02-21T09:07:50;11.98;;;4.53;;
49296;SDS011;35163;48.878;18.040;2023-02-21T09:10:20;10.80;;;4.53;;
49296;SDS011;35163;48.878;18.040;2023-02-21T09:12:47;14.82;;;6.45;;
49296;SDS011;35163;48.878;18.040;2023-02-21T09:15:14;29.10;;;11.10;;
49296;SDS011;35163;48.878;18.040;2023-02-21T09:17:41;13.23;;;5.45;;
49296;SDS011;35163;48.878;18.040;2023-02-21T09:20:09;10.23;;;4.10;;
49296;SDS011;35163;48.878;18.040;2023-02-21T09:22:41;17.00;;;3.80;;
49296;SDS011;35163;48.878;18.040;2023-02-21T09:25:10;9.93;;;3.78;;
49296;SDS011;35163;48.878;18.040;2023-02-21T09:27:38;8.13;;;3.42;;
49296;SDS011;35163;48.878;18.040;2023-02-21T09:30:13;9.80;;;3.38;;
49296;SDS011;35163;48.878;18.040;2023-02-21T09:32:43;9.77;;;3.88;;
49296;SDS011;35163;48.878;18.040;2023-02-21T09:35:10;8.15;;;3.40;;
49296;SDS011;35163;48.878;18.040;2023-02-21T09:37:39;11.40;;;3.72;;
49296;SDS011;35163;48.878;18.040;2023-02-21T09:45:27;12.45;;;2.75;;
49296;SDS011;35163;48.878;18.040;2023-02-21T09:47:58;6.85;;;2.80;;
49296;SDS011;35163;48.878;18.040;2023-02-21T09:50:28;10.10;;;3.55;;
49296;SDS011;35163;48.878;18.040;2023-02-21T09:53:05;6.70;;;2.72;;
49296;SDS011;35163;48.878;18.040;2023-02-21T09:55:34;8.10;;;3.38;;
49296;SDS011;35163;48.878;18.040;2023-02-21T09:58:10;7.85;;;3.60;;
49296;SDS011;35163;48.878;18.040;2023-02-21T10:00:39;11.27;;;3.83;;
49296;SDS011;35163;48.878;18.040;2023-02-21T10:03:25;7.78;;;2.88;;
49296;SDS011;35163;48.878;18.040;2023-02-21T10:06:13;15.38;;;7.03;;
49296;SDS011;35163;48.878;18.040;2023-02-21T10:11:51;10.93;;;3.83;;
49296;SDS011;35163;48.878;18.040;2023-02-21T10:14:31;13.15;;;3.92;;
49296;SDS011;35163;48.878;18.040;2023-02-21T10:20:05;8.95;;;3.30;;
49296;SDS011;35163;48.878;18.040;2023-02-21T10:22:42;8.27;;;3.20;;
49296;SDS011;35163;48.878;18.040;2023-02-21T10:25:19;11.15;;;3.63;;
49296;SDS011;35163;48.878;18.040;2023-02-21T10:27:49;7.95;;;3.53;;
49296;SDS011;35163;48.878;18.040;2023-02-21T10:32:51;8.63;;;3.20;;
49296;SDS011;35163;48.878;18.040;2023-02-21T10:35:19;9.52;;;3.63;;
49296;SDS011;35163;48.878;18.040;2023-02-21T10:37:50;13.25;;;4.70;;
49296;SDS011;35163;48.878;18.040;2023-02-21T10:40:35;11.63;;;4.82;;
49296;SDS011;35163;48.878;18.040;2023-02-21T10:43:29;11.65;;;3.80;;
49296;SDS011;35163;48.878;18.040;2023-02-21T10:52:03;11.02;;;3.75;;
49296;SDS011;35163;48.878;18.040;2023-02-21T10:54:38;11.10;;;4.05;;
49296;SDS011;35163;48.878;18.040;2023-02-21T10:57:07;10.60;;;3.55;;
49296;SDS011;35163;48.878;18.040;2023-02-21T10:59:41;7.85;;;3.60;;
49296;SDS011;35163;48.878;18.040;2023-02-21T11:02:29;8.68;;;3.45;;
49296;SDS011;35163;48.878;18.040;2023-02-21T11:05:07;10.00;;;4.35;;
49296;SDS011;35163;48.878;18.040;2023-02-21T11:07:34;15.57;;;7.30;;
49296;SDS011;35163;48.878;18.040;2023-02-21T11:10:01;13.88;;;6.93;;
49296;SDS011;35163;48.878;18.040;2023-02-21T11:13:00;11.77;;;6.43;;
49296;SDS011;35163;48.878;18.040;2023-02-21T11:15:47;15.25;;;5.50;;
49296;SDS011;35163;48.878;18.040;2023-02-21T11:18:32;18.67;;;9.52;;
49296;SDS011;35163;48.878;18.040;2023-02-21T11:21:08;13.20;;;6.07;;
49296;SDS011;35163;48.878;18.040;2023-02-21T11:23:58;8.27;;;3.90;;
49296;SDS011;35163;48.878;18.040;2023-02-21T11:26:44;9.82;;;3.60;;
49296;SDS011;35163;48.878;18.040;2023-02-21T11:29:18;9.35;;;3.80;;
49296;SDS011;35163;48.878;18.040;2023-02-21T11:31:55;15.75;;;3.50;;
49296;SDS011;35163;48.878;18.040;2023-02-21T11:34:25;8.35;;;3.25;;
49296;SDS011;35163;48.878;18.040;2023-02-21T11:36:55;7.70;;;3.70;;
49296;SDS011;35163;48.878;18.040;2023-02-21T11:39:32;7.22;;;3.20;;
49296;SDS011;35163;48.878;18.040;2023-02-21T11:42:00;7.00;;;3.10;;
49296;SDS011;35163;48.878;18.040;2023-02-21T11:44:47;6.50;;;3.00;;
49296;SDS011;35163;48.878;18.040;2023-02-21T11:52:19;10.35;;;3.70;;
49296;SDS011;35163;48.878;18.040;2023-02-21T11:54:49;7.97;;;3.13;;
49296;SDS011;35163;48.878;18.040;2023-02-21T12:00:19;6.97;;;2.92;;
49296;SDS011;35163;48.878;18.040;2023-02-21T12:05:31;12.35;;;5.07;;
49296;SDS011;35163;48.878;18.040;2023-02-21T12:11:27;7.90;;;3.20;;
49296;SDS011;35163;48.878;18.040;2023-02-21T12:14:15;8.47;;;2.40;;
49296;SDS011;35163;48.878;18.040;2023-02-21T12:17:17;7.18;;;2.65;;
49296;SDS011;35163;48.878;18.040;2023-02-21T12:22:33;4.40;;;2.38;;
49296;SDS011;35163;48.878;18.040;2023-02-21T12:34:00;3.75;;;1.90;;
49296;SDS011;35163;48.878;18.040;2023-02-21T12:39:16;3.05;;;1.88;;
49296;SDS011;35163;48.878;18.040;2023-02-21T12:47:48;4.35;;;1.55;;
49296;SDS011;35163;48.878;18.040;2023-02-21T12:53:19;3.03;;;1.50;;
49296;SDS011;35163;48.878;18.040;2023-02-21T12:55:51;4.38;;;2.10;;
49296;SDS011;35163;48.878;18.040;2023-02-21T12:58:58;4.15;;;1.92;;
49296;SDS011;35163;48.878;18.040;2023-02-21T13:01:32;3.40;;;1.75;;
49296;SDS011;35163;48.878;18.040;2023-02-21T13:07:00;2.20;;;1.42;;
49296;SDS011;35163;48.878;18.040;2023-02-21T13:09:37;3.80;;;1.73;;
49296;SDS011;35163;48.878;18.040;2023-02-21T13:12:10;6.00;;;1.70;;
49296;SDS011;35163;48.878;18.040;2023-02-21T13:17:30;3.97;;;1.67;;
49296;SDS011;35163;48.878;18.040;2023-02-21T13:20:02;4.00;;;1.50;;
49296;SDS011;35163;48.878;18.040;2023-02-21T13:26:00;3.33;;;1.38;;
49296;SDS011;35163;48.878;18.040;2023-02-21T13:28:42;4.03;;;1.40;;
49296;SDS011;35163;48.878;18.040;2023-02-21T13:31:18;2.65;;;1.40;;
49296;SDS011;35163;48.878;18.040;2023-02-21T13:33:51;3.60;;;1.52;;
49296;SDS011;35163;48.878;18.040;2023-02-21T13:44:16;2.05;;;1.20;;
49296;SDS011;35163;48.878;18.040;2023-02-21T13:47:05;4.18;;;1.55;;
49296;SDS011;35163;48.878;18.040;2023-02-21T13:57:47;4.30;;;1.50;;
49296;SDS011;35163;48.878;18.040;2023-02-21T14:08:26;4.07;;;1.92;;
49296;SDS011;35163;48.878;18.040;2023-02-21T14:13:48;3.97;;;1.63;;
49296;SDS011;35163;48.878;18.040;2023-02-21T14:16:33;3.70;;;1.55;;
49296;SDS011;35163;48.878;18.040;2023-02-21T14:19:16;3.20;;;1.52;;
49296;SDS011;35163;48.878;18.040;2023-02-21T14:21:50;3.90;;;1.48;;
49296;SDS011;35163;48.878;18.040;2023-02-21T14:24:42;4.15;;;1.73;;
49296;SDS011;35163;48.878;18.040;2023-02-21T14:34:39;5.78;;;1.80;;
49296;SDS011;35163;48.878;18.040;2023-02-21T14:42:41;5.00;;;1.92;;
49296;SDS011;35163;48.878;18.040;2023-02-21T14:56:06;5.25;;;2.75;;
49296;SDS011;35163;48.878;18.040;2023-02-21T15:04:20;4.68;;;2.13;;
49296;SDS011;35163;48.878;18.040;2023-02-21T15:07:02;7.40;;;1.80;;
49296;SDS011;35163;48.878;18.040;2023-02-21T15:09:36;5.90;;;2.53;;
49296;SDS011;35163;48.878;18.040;2023-02-21T15:12:09;4.88;;;2.20;;
49296;SDS011;35163;48.878;18.040;2023-02-21T15:14:49;4.85;;;1.85;;
49296;SDS011;35163;48.878;18.040;2023-02-21T15:17:20;4.03;;;1.80;;
49296;SDS011;35163;48.878;18.040;2023-02-21T15:22:54;5.72;;;1.80;;
49296;SDS011;35163;48.878;18.040;2023-02-21T15:25:32;5.80;;;1.98;;
49296;SDS011;35163;48.878;18.040;2023-02-21T15:27:59;3.75;;;2.05;;
49296;SDS011;35163;48.878;18.040;2023-02-21T15:30:31;5.32;;;2.17;;
49296;SDS011;35163;48.878;18.040;2023-02-21T15:35:43;4.28;;;2.03;;
49296;SDS011;35163;48.878;18.040;2023-02-21T15:41:26;10.30;;;2.70;;
49296;SDS011;35163;48.878;18.040;2023-02-21T15:46:40;4.30;;;2.05;;
49296;SDS011;35163;48.878;18.040;2023-02-21T15:52:30;4.95;;;2.15;;
49296;SDS011;35163;48.878;18.040;2023-02-21T15:57:44;5.20;;;2.47;;
49296;SDS011;35163;48.878;18.040;2023-02-21T16:06:08;4.97;;;1.80;;
49296;SDS011;35163;48.878;18.040;2023-02-21T16:08:36;7.18;;;2.35;;
49296;SDS011;35163;48.878;18.040;2023-02-21T16:11:05;4.35;;;1.80;;
49296;SDS011;35163;48.878;18.040;2023-02-21T16:13:36;5.80;;;2.42;;
49296;SDS011;35163;48.878;18.040;2023-02-21T16:16:04;7.78;;;2.50;;
49296;SDS011;35163;48.878;18.040;2023-02-21T16:18:32;4.53;;;2.10;;
49296;SDS011;35163;48.878;18.040;2023-02-21T16:21:04;4.80;;;1.98;;
49296;SDS011;35163;48.878;18.040;2023-02-21T16:23:34;5.32;;;2.38;;
49296;SDS011;35163;48.878;18.040;2023-02-21T16:28:39;5.68;;;2.50;;
49296;SDS011;35163;48.878;18.040;2023-02-21T16:31:09;6.40;;;2.47;;
49296;SDS011;35163;48.878;18.040;2023-02-21T16:33:43;6.88;;;2.47;;
49296;SDS011;35163;48.878;18.040;2023-02-21T16:36:16;11.07;;;2.28;;
49296;SDS011;35163;48.878;18.040;2023-02-21T16:38:46;6.40;;;2.30;;
49296;SDS011;35163;48.878;18.040;2023-02-21T16:41:13;4.88;;;2.50;;
49296;SDS011;35163;48.878;18.040;2023-02-21T16:43:41;6.18;;;2.65;;
49296;SDS011;35163;48.878;18.040;2023-02-21T16:46:08;17.73;;;6.18;;
49296;SDS011;35163;48.878;18.040;2023-02-21T16:48:35;13.85;;;4.05;;
49296;SDS011;35163;48.878;18.040;2023-02-21T16:51:03;9.18;;;3.63;;
49296;SDS011;35163;48.878;18.040;2023-02-21T16:53:35;7.32;;;2.85;;
49296;SDS011;35163;48.878;18.040;2023-02-21T16:56:02;5.65;;;2.50;;
49296;SDS011;35163;48.878;18.040;2023-02-21T16:58:37;5.50;;;2.42;;
49296;SDS011;35163;48.878;18.040;2023-02-21T17:01:14;5.43;;;2.40;;
49296;SDS011;35163;48.878;18.040;2023-02-21T17:03:47;4.65;;;2.05;;
49296;SDS011;35163;48.878;18.040;2023-02-21T17:06:21;4.25;;;1.98;;
49296;SDS011;35163;48.878;18.040;2023-02-21T17:08:49;5.90;;;2.80;;
49296;SDS011;35163;48.878;18.040;2023-02-21T17:11:16;5.15;;;2.50;;
49296;SDS011;35163;48.878;18.040;2023-02-21T17:13:43;6.38;;;2.50;;
49296;SDS011;35163;48.878;18.040;2023-02-21T17:16:10;4.25;;;2.17;;
49296;SDS011;35163;48.878;18.040;2023-02-21T17:18:37;6.60;;;2.53;;
49296;SDS011;35163;48.878;18.040;2023-02-21T17:21:04;8.02;;;3.00;;
49296;SDS011;35163;48.878;18.040;2023-02-21T17:23:30;6.43;;;3.00;;
49296;SDS011;35163;48.878;18.040;2023-02-21T17:25:57;6.80;;;2.60;;
49296;SDS011;35163;48.878;18.040;2023-02-21T17:28:23;6.43;;;3.03;;
49296;SDS011;35163;48.878;18.040;2023-02-21T17:30:50;7.53;;;2.88;;
49296;SDS011;35163;48.878;18.040;2023-02-21T17:33:17;7.32;;;3.35;;
49296;SDS011;35163;48.878;18.040;2023-02-21T17:35:44;5.72;;;2.70;;
49296;SDS011;35163;48.878;18.040;2023-02-21T17:38:10;9.20;;;3.65;;
49296;SDS011;35163;48.878;18.040;2023-02-21T17:40:37;11.23;;;4.35;;
49296;SDS011;35163;48.878;18.040;2023-02-21T17:43:04;13.20;;;5.75;;
49296;SDS011;35163;48.878;18.040;2023-02-21T17:45:36;11.23;;;4.78;;
49296;SDS011;35163;48.878;18.040;2023-02-21T17:48:03;10.57;;;3.90;;
49296;SDS011;35163;48.878;18.040;2023-02-21T17:50:31;7.28;;;3.20;;
49296;SDS011;35163;48.878;18.040;2023-02-21T17:52:57;7.18;;;3.20;;
49296;SDS011;35163;48.878;18.040;2023-02-21T17:55:24;5.75;;;2.88;;
49296;SDS011;35163;48.878;18.040;2023-02-21T17:57:51;10.05;;;3.42;;
49296;SDS011;35163;48.878;18.040;2023-02-21T18:00:20;9.38;;;3.40;;
49296;SDS011;35163;48.878;18.040;2023-02-21T18:02:50;11.07;;;3.85;;
49296;SDS011;35163;48.878;18.040;2023-02-21T18:05:18;7.22;;;3.38;;
49296;SDS011;35163;48.878;18.040;2023-02-21T18:07:49;8.18;;;3.80;;
49296;SDS011;35163;48.878;18.040;2023-02-21T18:10:18;13.65;;;3.95;;
49296;SDS011;35163;48.878;18.040;2023-02-21T18:12:46;9.45;;;4.20;;
49296;SDS011;35163;48.878;18.040;2023-02-21T18:15:16;9.40;;;4.30;;
49296;SDS011;35163;48.878;18.040;2023-02-21T18:17:43;10.90;;;5.00;;
49296;SDS011;35163;48.878;18.040;2023-02-21T18:20:10;11.65;;;4.78;;
49296;SDS011;35163;48.878;18.040;2023-02-21T18:22:39;9.90;;;4.20;;